Time;durP1;ratioP1;P1;durP2;ratioP2;P2;SDS_P1;SDS_P2;PMS_P1;PMS_P2;Temp;Humidity;BMP_temperature;BMP_pressure;BME280_temperature;BME280_humidity;BME280_pressure;Samples;Min_cycle;Max_cycle;Signal;HPM_P1;HPM_P2
2020/12/16 00:00:27;;;;;;;33.73;17.37;;;;;;;3.34;73.78;100390.78;124393;1098;104587;-72
2020/12/16 00:02:55;;;;;;;39.57;18.53;;;;;;;3.36;74.47;100395.96;124524;1098;104608;-73
2020/12/16 00:05:23;;;;;;;38.57;18.67;;;;;;;3.35;73.96;100392.48;124433;1098;104611;-75
2020/12/16 00:07:52;;;;;;;38.70;19.50;;;;;;;3.35;74.53;100395.12;124451;1098;104599;-73
2020/12/16 00:10:20;;;;;;;36.27;17.73;;;;;;;3.36;74.58;100399.44;124428;1098;104534;-73
2020/12/16 00:12:48;;;;;;;39.90;18.70;;;;;;;3.35;74.46;100403.03;124407;1098;104609;-75
2020/12/16 00:15:16;;;;;;;39.67;18.27;;;;;;;3.32;74.04;100408.50;124492;1098;104618;-74
2020/12/16 00:17:44;;;;;;;34.83;18.00;;;;;;;3.33;73.69;100397.86;124438;1098;104627;-75
2020/12/16 00:20:12;;;;;;;33.30;18.07;;;;;;;3.35;73.74;100397.77;124368;1098;104583;-73
2020/12/16 00:22:41;;;;;;;38.65;19.05;;;;;;;3.34;73.55;100402.17;124508;1099;104580;-71
2020/12/16 00:25:11;;;;;;;36.53;17.13;;;;;;;3.33;73.64;100402.30;124429;1098;104534;-75
2020/12/16 00:27:39;;;;;;;34.83;18.13;;;;;;;3.31;74.41;100399.75;124481;1098;104497;-76
2020/12/16 00:30:08;;;;;;;39.83;22.27;;;;;;;3.32;73.95;100397.95;124404;1098;104754;-75
2020/12/16 00:32:38;;;;;;;39.13;20.03;;;;;;;3.32;74.36;100395.31;124409;1098;104592;-74
2020/12/16 00:35:08;;;;;;;37.23;19.97;;;;;;;3.33;74.19;100404.94;124419;1098;104612;-77
2020/12/16 00:37:37;;;;;;;40.63;22.77;;;;;;;3.34;73.62;100401.33;124442;1099;104753;-74
2020/12/16 00:40:07;;;;;;;38.10;20.70;;;;;;;3.36;74.03;100406.52;124467;1098;104650;-75
2020/12/16 00:42:36;;;;;;;41.27;22.53;;;;;;;3.32;73.70;100408.50;124470;1098;104519;-74
2020/12/16 00:45:05;;;;;;;45.35;22.60;;;;;;;3.31;74.39;100397.12;124449;1098;104574;-76
2020/12/16 00:47:35;;;;;;;43.97;22.53;;;;;;;3.32;74.18;100390.05;124477;1098;104917;-74
2020/12/16 00:50:05;;;;;;;39.23;21.73;;;;;;;3.37;73.85;100393.23;124304;1098;104597;-76
2020/12/16 00:52:34;;;;;;;37.57;19.67;;;;;;;3.35;73.59;100418.86;124274;1098;104570;-74
2020/12/16 00:55:04;;;;;;;38.97;21.00;;;;;;;3.33;73.64;100404.94;124429;1098;104628;-76
2020/12/16 00:57:33;;;;;;;40.17;21.43;;;;;;;3.36;73.46;100403.88;124429;1098;104707;-76
2020/12/16 01:00:07;;;;;;;39.57;21.43;;;;;;;3.42;74.20;100406.92;124297;1098;104526;-74
2020/12/16 01:02:38;;;;;;;42.03;22.33;;;;;;;3.42;73.56;100396.37;124406;1098;104513;-77
2020/12/16 01:05:06;;;;;;;38.97;22.40;;;;;;;3.42;74.39;100399.02;124419;1098;104637;-77
2020/12/16 01:07:35;;;;;;;43.83;23.40;;;;;;;3.44;73.58;100397.11;124458;1098;104682;-75
2020/12/16 01:10:04;;;;;;;43.50;23.70;;;;;;;3.44;73.96;100397.11;124473;1098;104605;-76
2020/12/16 01:12:39;;;;;;;37.10;19.60;;;;;;;3.44;74.20;100407.67;124308;1098;104986;-75
2020/12/16 01:15:10;;;;;;;35.20;19.93;;;;;;;3.47;74.29;100396.92;124357;1098;104591;-77
2020/12/16 01:17:40;;;;;;;39.20;21.40;;;;;;;3.46;73.42;100400.49;124327;1098;104608;-76
2020/12/16 01:20:11;;;;;;;37.87;21.03;;;;;;;3.47;74.19;100399.56;124331;1098;104952;-77
2020/12/16 01:22:41;;;;;;;39.05;21.85;;;;;;;3.51;74.10;100389.65;124459;1099;104595;-77
2020/12/16 01:25:11;;;;;;;44.90;23.43;;;;;;;3.49;73.81;100395.02;124302;1098;104992;-77
2020/12/16 01:27:39;;;;;;;46.17;23.00;;;;;;;3.51;73.30;100400.20;124492;1098;104589;-74
2020/12/16 01:30:09;;;;;;;41.25;22.30;;;;;;;3.51;73.76;100414.23;124391;1098;104617;-73
2020/12/16 01:32:39;;;;;;;34.90;19.73;;;;;;;3.49;74.21;100410.02;124412;1098;104655;-74
2020/12/16 01:35:08;;;;;;;38.87;20.00;;;;;;;3.50;73.13;100412.55;124516;1098;104599;-76
2020/12/16 01:37:37;;;;;;;35.97;19.67;;;;;;;3.51;73.08;100408.95;124334;1099;104691;-76
2020/12/16 01:40:06;;;;;;;34.37;19.77;;;;;;;3.50;74.07;100409.91;124306;1098;104548;-77
2020/12/16 01:42:36;;;;;;;38.25;21.10;;;;;;;3.54;73.82;100397.33;124398;1098;104590;-75
2020/12/16 01:45:06;;;;;;;41.23;22.10;;;;;;;3.51;73.21;100408.95;124289;1098;104577;-74
2020/12/16 01:47:34;;;;;;;43.07;22.73;;;;;;;3.49;73.89;100402.09;124447;1098;104701;-74
2020/12/16 01:50:12;;;;;;;42.13;22.97;;;;;;;3.43;73.92;100400.72;124402;1098;104676;-75
2020/12/16 01:52:41;;;;;;;38.85;19.95;;;;;;;3.39;73.11;100391.33;124421;1098;104483;-74
2020/12/16 01:55:12;;;;;;;36.97;19.27;;;;;;;3.37;74.02;100402.91;124435;1098;105095;-74
2020/12/16 01:57:54;;;;;;;38.27;20.97;;;;;;;3.33;73.89;100404.94;124404;1098;104647;-74
2020/12/16 02:00:26;;;;;;;39.63;20.67;;;;;;;3.31;74.03;100409.44;124420;1098;104618;-75
2020/12/16 02:03:01;;;;;;;40.53;22.27;;;;;;;3.30;73.64;100407.77;124415;1098;104535;-75
2020/12/16 02:06:09;;;;;;;39.60;21.15;;;;;;;3.29;73.26;100408.70;124241;1098;104727;-74
2020/12/16 02:08:42;;;;;;;42.23;22.70;;;;;;;3.29;73.45;100414.84;124462;1098;104758;-74
2020/12/16 02:11:13;;;;;;;33.53;17.40;;;;;;;3.27;74.04;100410.59;124459;1098;104625;-75
2020/12/16 02:13:44;;;;;;;37.50;19.57;;;;;;;3.27;74.07;100405.32;124412;1098;104586;-73
2020/12/16 02:16:13;;;;;;;36.40;19.67;;;;;;;3.29;73.30;100406.06;124278;1099;104928;-74
2020/12/16 02:18:47;;;;;;;37.13;21.70;;;;;;;3.28;73.14;100407.02;124407;1098;104688;-77
2020/12/16 02:21:17;;;;;;;39.97;21.50;;;;;;;3.30;73.20;100405.97;124284;1098;104564;-76
2020/12/16 02:23:47;;;;;;;36.90;21.00;;;;;;;3.30;73.89;100397.22;124413;1098;104622;-74
2020/12/16 02:26:16;;;;;;;39.63;22.20;;;;;;;3.28;73.93;100399.11;124460;1098;104535;-74
2020/12/16 02:28:51;;;;;;;37.30;21.33;;;;;;;3.27;73.92;100400.91;124475;1098;104532;-74
2020/12/16 02:31:20;;;;;;;33.20;17.75;;;;;;;3.25;73.87;100394.03;124320;1098;104628;-75
2020/12/16 02:34:06;;;;;;;34.20;19.65;;;;;;;3.23;73.92;100398.56;124366;1098;104961;-75
2020/12/16 02:36:37;;;;;;;35.47;20.63;;;;;;;3.20;73.05;100398.79;124407;1098;104625;-73
2020/12/16 02:39:09;;;;;;;39.55;21.80;;;;;;;3.18;73.21;100398.88;124434;1098;104717;-74
2020/12/16 02:42:03;;;;;;;39.67;20.23;;;;;;;3.19;73.00;100397.92;124348;1098;104616;-76
2020/12/16 02:44:32;;;;;;;39.67;21.63;;;;;;;3.19;73.98;100419.02;124310;1098;105472;-76
2020/12/16 02:47:14;;;;;;;37.77;19.53;;;;;;;3.19;72.58;100412.91;124313;1099;104564;-75
2020/12/16 02:49:44;;;;;;;35.07;19.23;;;;;;;3.16;73.33;100408.69;124448;1099;104624;-74
2020/12/16 02:52:12;;;;;;;37.20;18.57;;;;;;;3.18;73.99;100416.51;124392;1098;104593;-75
2020/12/16 02:54:41;;;;;;;33.60;18.57;;;;;;;3.21;73.89;100411.01;124492;1099;104490;-74
2020/12/16 02:57:23;;;;;;;37.45;20.60;;;;;;;3.24;73.86;100413.45;124420;1098;104605;-74
2020/12/16 02:59:59;;;;;;;35.70;19.50;;;;;;;3.25;73.85;100423.04;124420;1098;104675;-74
2020/12/16 03:02:46;;;;;;;34.90;19.17;;;;;;;3.29;73.66;100424.52;124428;1098;104612;-76
2020/12/16 03:05:36;;;;;;;35.80;20.50;;;;;;;3.27;73.69;100423.78;124419;1098;104735;-75
2020/12/16 03:08:09;;;;;;;34.23;19.73;;;;;;;3.26;72.65;100424.74;124370;1098;104587;-74
2020/12/16 03:10:44;;;;;;;34.50;17.83;;;;;;;3.24;72.89;100432.75;124427;1098;104733;-75
2020/12/16 03:13:15;;;;;;;29.77;16.73;;;;;;;3.25;73.74;100433.59;124425;1098;104615;-76
2020/12/16 03:15:43;;;;;;;32.10;18.40;;;;;;;3.23;74.02;100438.13;124458;1098;104529;-75
2020/12/16 03:18:12;;;;;;;34.90;18.90;;;;;;;3.24;73.78;100437.19;124421;1098;104574;-74
2020/12/16 03:20:41;;;;;;;33.10;18.03;;;;;;;3.25;73.77;100433.59;124397;1099;104772;-74
2020/12/16 03:23:11;;;;;;;33.73;18.63;;;;;;;3.27;73.38;100440.47;124503;1098;104608;-74
2020/12/16 03:26:05;;;;;;;34.30;18.43;;;;;;;3.31;73.54;100428.77;124155;1098;104679;-75
2020/12/16 03:28:47;;;;;;;34.50;18.57;;;;;;;3.31;74.05;100426.13;124407;1098;104499;-76
2020/12/16 03:31:35;;;;;;;29.90;16.10;;;;;;;3.33;72.89;100426.03;124414;1098;104615;-76
2020/12/16 03:34:22;;;;;;;29.27;15.63;;;;;;;3.35;73.67;100424.14;124421;1098;104533;-76
2020/12/16 03:36:59;;;;;;;30.03;16.97;;;;;;;3.33;73.67;100426.87;124311;1098;104573;-77
2020/12/16 03:39:29;;;;;;;30.90;17.23;;;;;;;3.37;73.64;100426.64;124419;1098;104579;-74
2020/12/16 03:41:58;;;;;;;28.00;16.65;;;;;;;3.38;72.89;100430.98;124442;1098;104686;-74
2020/12/16 03:44:27;;;;;;;33.10;17.87;;;;;;;3.39;72.93;100432.66;124414;1098;104568;-73
2020/12/16 03:46:57;;;;;;;29.00;16.80;;;;;;;3.39;73.62;100436.17;124419;1098;104577;-76
2020/12/16 03:49:26;;;;;;;32.27;18.57;;;;;;;3.37;73.55;100438.06;124308;1098;104596;-76
2020/12/16 03:51:56;;;;;;;32.50;18.25;;;;;;;3.38;72.83;100429.19;124547;1098;104666;-73
2020/12/16 03:54:32;;;;;;;30.73;16.33;;;;;;;3.36;72.72;100433.72;124433;1098;105169;-73
2020/12/16 03:57:17;;;;;;;26.43;14.90;;;;;;;3.38;73.63;100436.27;124435;1098;104506;-73
2020/12/16 04:00:12;;;;;;;30.50;16.57;;;;;;;3.40;73.56;100437.84;124449;1098;104603;-71
2020/12/16 04:02:50;;;;;;;30.57;17.67;;;;;;;3.42;73.92;100443.86;124463;1098;104730;-73
2020/12/16 04:05:28;;;;;;;29.50;16.50;;;;;;;3.41;73.34;100433.44;124283;1098;104595;-72
2020/12/16 04:07:56;;;;;;;29.53;16.77;;;;;;;3.40;72.71;100451.03;124405;1098;104590;-74
2020/12/16 04:10:43;;;;;;;30.13;16.73;;;;;;;3.43;72.69;100447.36;124381;1098;104608;-73
2020/12/16 04:13:14;;;;;;;27.80;16.73;;;;;;;3.44;72.64;100439.32;124613;1098;104820;-75
2020/12/16 04:15:45;;;;;;;25.97;14.18;;;;;;;3.40;72.73;100434.37;124595;1098;104539;-76
2020/12/16 04:18:14;;;;;;;26.83;14.77;;;;;;;3.39;73.51;100441.45;124393;1098;105574;-78
2020/12/16 04:20:43;;;;;;;28.17;15.87;;;;;;;3.43;73.55;100440.29;124504;1098;104597;-76
2020/12/16 04:23:12;;;;;;;25.90;14.57;;;;;;;3.45;72.78;100438.39;124395;1098;104672;-76
2020/12/16 04:25:43;;;;;;;30.20;16.75;;;;;;;3.50;73.26;100440.70;124306;1098;104593;-74
2020/12/16 04:28:14;;;;;;;27.43;15.37;;;;;;;3.50;73.13;100444.21;124404;1098;104608;-75
2020/12/16 04:30:42;;;;;;;30.90;16.13;;;;;;;3.49;73.35;100439.03;124394;1098;104638;-76
2020/12/16 04:33:10;;;;;;;28.40;15.43;;;;;;;3.51;73.06;100443.25;124439;1098;104618;-76
2020/12/16 04:35:39;;;;;;;29.93;17.33;;;;;;;3.52;72.60;100446.72;124416;1098;104586;-76
2020/12/16 04:38:07;;;;;;;23.50;14.30;;;;;;;3.46;73.35;100453.25;124259;1098;104744;-76
2020/12/16 04:40:40;;;;;;;49.00;28.23;;;;;;;3.45;73.00;100448.94;124285;1098;104626;-76
2020/12/16 04:43:17;;;;;;;29.20;17.30;;;;;;;3.43;72.10;100448.20;124342;1098;104644;-74
2020/12/16 04:45:47;;;;;;;26.67;16.00;;;;;;;3.40;73.44;100451.03;124385;1098;104674;-76
2020/12/16 04:48:17;;;;;;;25.83;14.50;;;;;;;3.38;73.34;100449.45;124325;1098;105083;-76
2020/12/16 04:50:50;;;;;;;27.57;15.63;;;;;;;3.38;73.47;100447.65;124330;1098;104616;-76
2020/12/16 04:53:20;;;;;;;24.90;14.45;;;;;;;3.39;73.22;100446.72;124448;1098;104653;-76
2020/12/16 04:56:00;;;;;;;25.43;13.40;;;;;;;3.40;72.68;100448.39;124293;1098;104634;-75
2020/12/16 04:58:51;;;;;;;23.10;12.50;;;;;;;3.39;72.61;100451.13;124313;1098;104730;-76
2020/12/16 05:01:19;;;;;;;20.83;11.73;;;;;;;3.39;73.13;100440.58;124306;1098;104587;-75
2020/12/16 05:03:52;;;;;;;22.77;12.80;;;;;;;3.40;72.72;100443.12;124473;1099;104586;-75
2020/12/16 05:06:37;;;;;;;52.17;33.90;;;;;;;3.45;73.74;100448.94;124426;1099;104554;-77
2020/12/16 05:09:08;;;;;;;48.45;32.10;;;;;;;3.50;72.65;100448.62;124445;1098;104656;-74
2020/12/16 05:11:39;;;;;;;47.63;29.50;;;;;;;3.56;72.61;100453.52;124428;1098;104500;-75
2020/12/16 05:14:13;;;;;;;81.00;49.53;;;;;;;3.59;72.58;100442.73;124625;1098;104615;-75
2020/12/16 05:16:57;;;;;;;38.25;21.45;;;;;;;3.59;73.13;100448.01;124450;1098;104640;-74
2020/12/16 05:19:45;;;;;;;34.27;19.87;;;;;;;3.57;73.39;100457.82;124425;1099;104503;-76
2020/12/16 05:22:23;;;;;;;25.97;14.37;;;;;;;3.61;72.58;100458.47;124347;1098;104544;-74
2020/12/16 05:24:54;;;;;;;37.07;23.33;;;;;;;3.62;72.51;100455.73;124476;1099;104602;-74
2020/12/16 05:27:24;;;;;;;30.70;18.20;;;;;;;3.65;72.53;100459.95;124449;1099;104567;-81
2020/12/16 05:29:55;;;;;;;25.25;14.25;;;;;;;3.66;73.23;100454.56;124406;1098;104519;-75
2020/12/16 05:32:26;;;;;;;26.70;15.13;;;;;;;3.69;73.36;100451.70;124410;1098;104621;-76
2020/12/16 05:34:57;;;;;;;35.15;23.18;;;;;;;3.72;73.29;100448.03;124457;1099;104538;-76
2020/12/16 05:37:36;;;;;;;25.20;15.23;;;;;;;3.76;73.20;100449.51;124409;1098;104558;-75
2020/12/16 05:40:09;;;;;;;25.17;13.70;;;;;;;3.79;72.49;100451.09;124506;1099;104538;-76
2020/12/16 05:42:38;;;;;;;52.35;32.45;;;;;;;3.78;72.47;100447.61;124456;1098;104500;-74
2020/12/16 05:45:12;;;;;;;35.60;19.07;;;;;;;3.83;72.71;100458.70;124455;1098;104679;-75
2020/12/16 05:47:55;;;;;;;32.33;20.40;;;;;;;3.83;73.24;100456.06;124427;1098;104608;-76
2020/12/16 05:50:24;;;;;;;28.93;18.47;;;;;;;3.87;72.46;100448.78;124409;1099;104603;-75
2020/12/16 05:53:09;;;;;;;41.43;29.17;;;;;;;3.89;72.41;100458.28;124432;1098;104622;-76
2020/12/16 05:55:38;;;;;;;34.63;20.57;;;;;;;3.94;72.67;100455.31;124484;1098;104672;-76
2020/12/16 05:58:12;;;;;;;33.50;20.57;;;;;;;3.96;72.40;100457.86;124390;1098;104730;-76
2020/12/16 06:00:52;;;;;;;64.10;43.17;;;;;;;3.97;72.92;100470.12;124439;1098;105166;-76
2020/12/16 06:03:24;;;;;;;34.10;20.83;;;;;;;3.97;72.29;100467.48;124544;1098;104500;-76
2020/12/16 06:05:54;;;;;;;31.60;19.77;;;;;;;3.94;72.28;100471.16;124496;1098;104542;-75
2020/12/16 06:08:24;;;;;;;59.47;40.13;;;;;;;3.90;72.15;100478.44;124447;1098;104588;-77
2020/12/16 06:10:53;;;;;;;86.93;61.37;;;;;;;3.90;72.49;100481.08;124415;1098;104602;-76
2020/12/16 06:13:23;;;;;;;72.83;48.23;;;;;;;3.91;72.58;100484.58;124433;1099;104541;-76
2020/12/16 06:15:54;;;;;;;59.20;38.63;;;;;;;3.91;72.15;100480.14;124496;1098;104679;-74
2020/12/16 06:18:25;;;;;;;75.13;44.73;;;;;;;3.92;72.79;100486.26;124461;1098;104636;-75
2020/12/16 06:20:54;;;;;;;44.17;26.60;;;;;;;3.90;72.69;100481.08;124413;1098;104538;-75
2020/12/16 06:23:34;;;;;;;38.80;24.03;;;;;;;3.90;72.54;100496.91;124501;1098;104477;-75
2020/12/16 06:26:05;;;;;;;43.25;28.60;;;;;;;3.88;72.62;100488.25;124542;1098;104672;-75
2020/12/16 06:28:33;;;;;;;34.87;21.13;;;;;;;3.85;72.50;100498.17;124434;1093;104568;-76
2020/12/16 06:31:25;;;;;;;38.50;25.20;;;;;;;3.81;72.47;100500.20;124445;1098;104519;-76
2020/12/16 06:33:59;;;;;;;40.15;27.70;;;;;;;3.77;72.81;100498.69;124437;1098;104515;-75
2020/12/16 06:36:32;;;;;;;38.25;22.85;;;;;;;3.73;72.21;100505.13;124438;1098;104683;-76
2020/12/16 06:39:01;;;;;;;43.13;28.53;;;;;;;3.71;72.14;100497.34;124451;1098;104602;-76
2020/12/16 06:41:32;;;;;;;47.87;35.40;;;;;;;3.72;72.19;100500.81;124424;1098;104970;-75
2020/12/16 06:44:10;;;;;;;42.08;28.75;;;;;;;3.71;72.21;100504.39;124459;1099;104573;-76
2020/12/16 06:46:41;;;;;;;45.20;30.95;;;;;;;3.68;72.21;100505.45;124450;1099;104782;-76
2020/12/16 06:49:25;;;;;;;45.33;30.47;;;;;;;3.66;72.81;100511.79;124546;1098;104583;-75
2020/12/16 06:51:54;;;;;;;36.70;23.23;;;;;;;3.62;72.18;100512.91;124441;1098;104513;-78
2020/12/16 06:54:25;;;;;;;31.10;20.63;;;;;;;3.60;72.48;100513.04;124455;1098;104497;-74
2020/12/16 06:57:22;;;;;;;29.43;17.97;;;;;;;3.58;72.38;100516.70;124584;1098;104951;-76
2020/12/16 06:59:55;;;;;;;33.10;20.10;;;;;;;3.57;72.34;100518.51;124410;1098;104548;-81
2020/12/16 07:02:28;;;;;;;30.03;18.03;;;;;;;3.61;72.24;100537.63;124437;1098;104609;-77
2020/12/16 07:04:57;;;;;;;34.15;20.65;;;;;;;3.65;72.24;100542.59;124520;1098;104535;-77
2020/12/16 07:07:43;;;;;;;27.70;15.60;;;;;;;3.63;72.14;100543.64;124542;1093;104659;-77
2020/12/16 07:10:53;;;;;;;23.23;14.10;;;;;;;3.63;72.32;100549.77;124449;1093;104679;-78
2020/12/16 07:13:32;;;;;;;25.03;15.07;;;;;;;3.67;73.11;100545.13;124403;1098;104518;-76
2020/12/16 07:16:07;;;;;;;38.27;21.23;;;;;;;3.73;72.41;100555.27;124394;1098;104513;-75
2020/12/16 07:18:47;;;;;;;243.77;136.87;;;;;;;3.79;72.69;100560.17;124459;1099;104791;-77
2020/12/16 07:21:31;;;;;;;95.75;44.35;;;;;;;3.82;72.95;100556.47;124480;1099;104513;-79
2020/12/16 07:24:11;;;;;;;119.10;67.83;;;;;;;3.83;72.65;100556.38;124460;1098;104519;-77
2020/12/16 07:26:43;;;;;;;62.70;34.43;;;;;;;3.83;72.52;100561.66;124465;1098;104611;-76
2020/12/16 07:29:32;;;;;;;95.03;61.00;;;;;;;3.83;72.55;100561.66;124470;1098;104792;-78
2020/12/16 07:32:06;;;;;;;44.57;24.07;;;;;;;3.87;72.95;100562.30;124509;1098;104737;-76
2020/12/16 07:34:45;;;;;;;36.75;23.05;;;;;;;3.90;72.36;100562.91;124484;1093;104627;-75
2020/12/16 07:37:15;;;;;;;107.10;64.67;;;;;;;3.93;72.99;100573.28;124423;1093;104602;-76
2020/12/16 07:39:49;;;;;;;45.97;26.07;;;;;;;4.00;72.12;100570.22;124490;1093;104651;-76
2020/12/16 07:42:28;;;;;;;44.67;28.90;;;;;;;4.01;72.08;100575.41;124422;1098;104523;-76
2020/12/16 07:44:58;;;;;;;34.30;20.10;;;;;;;3.98;72.76;100575.59;124443;1098;104570;-79
2020/12/16 07:47:27;;;;;;;35.43;22.20;;;;;;;4.00;72.02;100580.78;124432;1098;104606;-76
2020/12/16 07:49:55;;;;;;;26.70;16.90;;;;;;;3.96;72.08;100588.06;124470;1098;104954;-77
2020/12/16 07:52:26;;;;;;;25.60;17.73;;;;;;;3.98;72.58;100580.88;124438;1098;104584;-78
2020/12/16 07:54:54;;;;;;;76.03;65.30;;;;;;;4.04;72.76;100580.49;124420;1098;104528;-77
2020/12/16 07:57:30;;;;;;;62.40;43.20;;;;;;;4.04;72.78;100582.27;124406;1098;104528;-76
2020/12/16 07:59:58;;;;;;;54.03;39.37;;;;;;;4.10;72.62;100584.52;124481;1099;104676;-77
2020/12/16 08:02:26;;;;;;;35.83;24.10;;;;;;;4.11;72.78;100581.75;124439;1098;104626;-76
2020/12/16 08:05:01;;;;;;;41.13;32.47;;;;;;;4.11;72.66;100587.03;124403;1099;104577;-77
2020/12/16 08:07:30;;;;;;;29.50;19.17;;;;;;;4.13;72.28;100589.58;124382;1098;104603;-77
2020/12/16 08:10:01;;;;;;;24.70;15.57;;;;;;;4.15;72.58;100587.67;124421;1098;104679;-75
2020/12/16 08:12:31;;;;;;;37.25;22.02;;;;;;;4.18;72.61;100595.41;124443;1098;104520;-76
2020/12/16 08:15:08;;;;;;;52.27;30.13;;;;;;;4.20;72.35;100596.14;124424;1099;104580;-76
2020/12/16 08:17:40;;;;;;;71.60;40.23;;;;;;;4.25;72.47;100603.74;124439;1098;104523;-77
2020/12/16 08:20:13;;;;;;;73.23;40.57;;;;;;;4.32;72.45;100602.38;124563;1098;104702;-78
2020/12/16 08:22:44;;;;;;;66.33;40.27;;;;;;;4.37;72.22;100607.34;124439;1098;104580;-80
2020/12/16 08:25:14;;;;;;;44.93;27.77;;;;;;;4.40;72.26;100601.86;124443;1098;104638;-76
2020/12/16 08:27:45;;;;;;;103.83;63.37;;;;;;;4.44;71.91;100603.34;124435;1098;104526;-76
2020/12/16 08:30:15;;;;;;;120.43;90.07;;;;;;;4.47;72.25;100603.14;124591;1098;104917;-76
2020/12/16 08:32:56;;;;;;;50.87;31.33;;;;;;;4.50;72.34;100598.50;124446;1098;104660;-76
2020/12/16 08:35:29;;;;;;;69.30;44.30;;;;;;;4.57;72.32;100611.28;124416;1098;104493;-76
2020/12/16 08:38:03;;;;;;;59.53;35.43;;;;;;;4.61;72.44;100610.11;124449;1098;104506;-76
2020/12/16 08:40:35;;;;;;;38.13;22.77;;;;;;;4.62;71.74;100603.86;124406;1098;104730;-78
2020/12/16 08:43:21;;;;;;;38.10;24.35;;;;;;;4.64;72.16;100616.04;124426;1098;104710;-78
2020/12/16 08:45:58;;;;;;;28.23;16.83;;;;;;;4.68;72.00;100622.80;124471;1098;104718;-76
2020/12/16 08:48:26;;;;;;;25.00;14.27;;;;;;;4.70;72.03;100610.33;124469;1099;104614;-77
2020/12/16 08:51:06;;;;;;;23.37;13.13;;;;;;;4.68;71.83;100612.23;124474;1098;105024;-75
2020/12/16 08:53:56;;;;;;;25.20;16.33;;;;;;;4.67;72.33;100615.81;124458;1098;104599;-77
2020/12/16 08:56:39;;;;;;;23.10;14.97;;;;;;;4.75;72.19;100617.92;124412;1098;104599;-78
2020/12/16 08:59:13;;;;;;;28.93;15.63;;;;;;;4.81;71.96;100614.88;124424;1098;104494;-76
2020/12/16 09:01:44;;;;;;;25.37;13.97;;;;;;;4.89;72.22;100619.63;124509;1098;104679;-76
2020/12/16 09:04:21;;;;;;;91.17;46.57;;;;;;;4.94;72.32;100614.84;124460;1098;104532;-75
2020/12/16 09:07:00;;;;;;;39.20;20.15;;;;;;;5.00;71.90;100617.05;124480;1099;104550;-76
2020/12/16 09:09:29;;;;;;;49.67;28.37;;;;;;;5.04;71.93;100623.84;124473;1098;104600;-76
2020/12/16 09:11:57;;;;;;;86.60;51.63;;;;;;;5.09;72.16;100631.43;124466;1098;104593;-75
2020/12/16 09:14:26;;;;;;;138.73;59.13;;;;;;;5.10;71.72;100622.56;124376;1098;104582;-75
2020/12/16 09:16:54;;;;;;;49.73;22.80;;;;;;;5.13;71.39;100624.13;124495;1099;104533;-75
2020/12/16 09:19:25;;;;;;;35.75;21.50;;;;;;;5.14;71.67;100623.16;124460;1098;104606;-75
2020/12/16 09:21:53;;;;;;;27.37;15.87;;;;;;;5.20;71.66;100620.10;124483;1098;104682;-75
2020/12/16 09:24:23;;;;;;;36.87;23.37;;;;;;;5.28;71.44;100617.75;124410;1099;104694;-76
2020/12/16 09:26:54;;;;;;;29.03;17.33;;;;;;;5.37;71.25;100621.52;124397;1098;104565;-76
2020/12/16 09:29:25;;;;;;;41.45;24.55;;;;;;;5.40;71.52;100618.66;124395;1098;104518;-76
2020/12/16 09:32:08;;;;;;;64.20;40.37;;;;;;;5.45;72.13;100625.31;124434;1098;104566;-76
2020/12/16 09:34:39;;;;;;;67.90;38.05;;;;;;;5.51;71.36;100627.50;124506;1093;104515;-76
2020/12/16 09:37:18;;;;;;;51.57;30.43;;;;;;;5.54;72.01;100637.02;124480;1093;104624;-75
2020/12/16 09:39:48;;;;;;;43.20;26.45;;;;;;;5.61;72.17;100629.49;124418;1098;104499;-76
2020/12/16 09:42:18;;;;;;;38.70;24.73;;;;;;;5.68;71.25;100625.45;124486;1099;104608;-76
2020/12/16 09:44:48;;;;;;;75.20;49.90;;;;;;;5.76;72.02;100628.37;124550;1098;104510;-76
2020/12/16 09:47:19;;;;;;;123.03;78.40;;;;;;;5.85;71.09;100618.88;124423;1093;104494;-76
2020/12/16 09:49:56;;;;;;;;;;;;;;;5.89;70.84;100631.80;124497;1093;104487;-77
2020/12/16 09:52:32;;;;;;;53.43;32.17;;;;;;;5.91;71.64;100629.05;124400;1099;104647;-78
2020/12/16 09:55:14;;;;;;;59.93;39.87;;;;;;;5.96;70.90;100634.02;124423;1099;104590;-78
2020/12/16 09:57:44;;;;;;;46.47;29.53;;;;;;;5.97;70.99;100633.91;124426;1098;104614;-75
2020/12/16 10:00:13;;;;;;;82.87;53.50;;;;;;;6.00;70.78;100638.97;124515;1091;104608;-77
2020/12/16 10:02:41;;;;;;;44.30;29.17;;;;;;;6.05;70.85;100630.70;124484;1093;104590;-79
2020/12/16 10:05:09;;;;;;;43.95;27.70;;;;;;;6.12;71.07;100637.23;124416;1098;104551;-76
2020/12/16 10:07:37;;;;;;;40.37;25.50;;;;;;;6.19;71.93;100637.60;124423;1098;104528;-77
2020/12/16 10:10:05;;;;;;;44.60;28.90;;;;;;;6.24;70.99;100638.95;124432;1098;104602;-78
2020/12/16 10:12:34;;;;;;;33.30;21.40;;;;;;;6.29;71.09;100642.10;124525;1098;104622;-78
2020/12/16 10:15:02;;;;;;;220.77;128.67;;;;;;;6.36;70.62;100644.28;124540;1098;104630;-76
2020/12/16 10:17:30;;;;;;;86.20;50.90;;;;;;;6.41;71.28;100644.76;124498;1098;104602;-77
2020/12/16 10:20:01;;;;;;;72.13;45.80;;;;;;;6.38;70.98;100647.66;124418;1098;105083;-76
2020/12/16 10:22:29;;;;;;;63.50;39.17;;;;;;;6.35;70.78;100650.53;124475;1098;104609;-77
2020/12/16 10:24:57;;;;;;;59.87;37.47;;;;;;;6.30;70.89;100650.89;124412;1098;104744;-76
2020/12/16 10:27:28;;;;;;;70.73;44.43;;;;;;;6.27;71.52;100654.63;124381;1098;105047;-76
2020/12/16 10:29:58;;;;;;;50.97;31.97;;;;;;;6.24;70.87;100657.50;124441;1098;104625;-77
2020/12/16 10:32:26;;;;;;;39.65;24.40;;;;;;;6.25;71.36;100653.03;124408;1098;104679;-77
2020/12/16 10:34:55;;;;;;;73.30;45.37;;;;;;;6.26;70.49;100670.64;124445;1098;104610;-77
2020/12/16 10:37:25;;;;;;;83.63;53.40;;;;;;;6.28;71.95;100658.95;124486;1098;104574;-76
2020/12/16 10:39:54;;;;;;;49.80;30.13;;;;;;;6.26;70.51;100658.22;124498;1093;104603;-77
2020/12/16 10:42:23;;;;;;;42.13;26.53;;;;;;;6.22;71.49;100651.47;124456;1093;104653;-77
2020/12/16 10:44:51;;;;;;;35.70;22.27;;;;;;;6.23;70.70;100665.55;124422;1099;104733;-77
2020/12/16 10:47:19;;;;;;;48.17;30.77;;;;;;;6.24;71.32;100651.36;124398;1098;104554;-78
2020/12/16 10:49:47;;;;;;;47.97;32.47;;;;;;;6.25;70.94;100656.52;124392;1098;104606;-77
2020/12/16 10:52:16;;;;;;;43.63;25.70;;;;;;;6.29;71.71;100660.66;124432;1098;104711;-77
2020/12/16 10:54:44;;;;;;;31.57;19.37;;;;;;;6.34;71.91;100665.59;124352;1098;104548;-77
2020/12/16 10:57:12;;;;;;;31.00;19.70;;;;;;;6.36;71.30;100655.72;124385;1098;104611;-75
2020/12/16 10:59:40;;;;;;;35.65;21.80;;;;;;;6.40;70.29;100658.98;124391;1098;104602;-79
2020/12/16 11:02:09;;;;;;;52.75;35.10;;;;;;;6.44;70.71;100657.79;124480;1098;104635;-76
2020/12/16 11:04:37;;;;;;;43.05;23.10;;;;;;;6.47;71.34;100662.88;124499;1098;104570;-78
2020/12/16 11:07:06;;;;;;;39.37;24.33;;;;;;;6.47;71.42;100663.70;124419;1098;104574;-76
2020/12/16 11:09:34;;;;;;;107.30;68.77;;;;;;;6.51;71.55;100658.19;124428;1098;104532;-76
2020/12/16 11:12:03;;;;;;;50.43;29.70;;;;;;;6.47;71.00;100668.17;124435;1099;104686;-78
2020/12/16 11:14:31;;;;;;;46.80;27.00;;;;;;;6.45;70.16;100665.64;124426;1098;105077;-76
2020/12/16 11:16:59;;;;;;;45.00;23.77;;;;;;;6.43;70.49;100666.72;124384;1098;104522;-76
2020/12/16 11:19:27;;;;;;;41.47;25.27;;;;;;;6.42;71.57;100665.85;124411;1098;104612;-77
2020/12/16 11:21:55;;;;;;;47.13;28.80;;;;;;;6.42;70.63;100667.67;124447;1099;104715;-76
2020/12/16 11:24:25;;;;;;;63.95;39.10;;;;;;;6.43;70.70;100672.86;124421;1099;104868;-77
2020/12/16 11:26:54;;;;;;;67.37;38.90;;;;;;;6.49;71.57;100671.55;124391;1098;104715;-76